createdAt,value
2018-01-02T00:00:21.303Z,65.70
2018-01-02T00:02:53.809Z,65.59
2018-01-02T00:05:26.317Z,65.54
2018-01-02T00:07:58.832Z,65.52
2018-01-02T00:10:31.327Z,65.77
2018-01-02T00:13:03.879Z,66.16
2018-01-02T00:15:36.385Z,66.30
2018-01-02T00:18:08.897Z,66.29
2018-01-02T00:20:41.394Z,66.29
2018-01-02T00:23:13.897Z,66.18
2018-01-02T00:25:46.397Z,66.10
2018-01-02T00:28:18.899Z,65.88
2018-01-02T00:30:51.376Z,66.02
2018-01-02T00:33:23.912Z,65.80
2018-01-02T00:35:56.430Z,65.76
2018-01-02T00:38:28.939Z,65.92
2018-01-02T00:41:01.439Z,65.65
2018-01-02T00:43:35.057Z,65.51
2018-01-02T00:46:07.548Z,65.49
2018-01-02T00:48:40.073Z,65.60
2018-01-02T00:51:12.563Z,65.98
2018-01-02T00:53:46.133Z,66.00
2018-01-02T00:56:18.631Z,65.65
2018-01-02T00:58:51.156Z,65.89
2018-01-02T01:01:23.645Z,67.10
2018-01-02T01:03:56.140Z,68.31
2018-01-02T01:06:28.642Z,67.72
2018-01-02T01:09:01.148Z,67.18
2018-01-02T01:11:33.642Z,66.71
2018-01-02T01:14:06.216Z,66.69
2018-01-02T01:16:38.669Z,66.59
2018-01-02T01:19:11.188Z,66.58
2018-01-02T01:21:43.675Z,66.61
2018-01-02T01:24:16.522Z,66.91
2018-01-02T01:26:49.712Z,66.96
2018-01-02T01:29:22.222Z,66.82
2018-01-02T01:31:54.702Z,66.92
2018-01-02T01:34:27.246Z,67.10
2018-01-02T01:36:59.755Z,67.08
2018-01-02T01:39:32.283Z,66.96
2018-01-02T01:42:04.780Z,66.88
2018-01-02T01:44:37.276Z,67.28
2018-01-02T01:47:09.764Z,67.05
2018-01-02T01:49:42.282Z,67.10
2018-01-02T01:52:14.781Z,67.16
2018-01-02T01:54:48.050Z,67.31
2018-01-02T01:57:20.527Z,67.44
2018-01-02T01:59:53.026Z,67.79
2018-01-02T02:02:25.528Z,67.75
2018-01-02T02:04:58.043Z,67.71
2018-01-02T02:07:30.522Z,67.57
2018-01-02T02:10:03.041Z,67.42
2018-01-02T02:12:35.525Z,67.44
2018-01-02T02:15:08.044Z,67.65
2018-01-02T02:17:40.519Z,67.86
2018-01-02T02:20:13.024Z,67.84
2018-01-02T02:22:45.523Z,67.92
2018-01-02T02:25:18.047Z,68.04
2018-01-02T02:27:50.559Z,67.84
2018-01-02T02:30:23.081Z,67.99
2018-01-02T02:32:55.567Z,67.99
2018-01-02T02:35:28.192Z,67.79
2018-01-02T02:38:00.688Z,67.98
2018-01-02T02:40:45.089Z,67.96
2018-01-02T02:43:17.587Z,68.03
2018-01-02T02:45:50.100Z,68.10
2018-01-02T02:48:22.590Z,67.93
2018-01-02T02:50:55.110Z,67.99
2018-01-02T02:53:27.618Z,68.11
2018-01-02T02:56:00.119Z,68.08
2018-01-02T02:58:32.619Z,68.14
2018-01-02T03:01:05.809Z,68.26
2018-01-02T03:03:38.356Z,68.37
2018-01-02T03:06:10.862Z,68.24
2018-01-02T03:08:43.368Z,68.24
2018-01-02T03:11:15.885Z,68.25
2018-01-02T03:13:48.388Z,68.13
2018-01-02T03:16:20.886Z,67.93
2018-01-02T03:18:53.376Z,68.14
2018-01-02T03:21:25.889Z,68.34
2018-01-02T03:23:58.385Z,68.43
2018-01-02T03:26:30.901Z,68.18
2018-01-02T03:29:04.027Z,68.23
2018-01-02T03:31:37.341Z,68.44
2018-01-02T03:34:09.844Z,68.44
2018-01-02T03:36:42.363Z,68.58
2018-01-02T03:39:14.863Z,68.69
2018-01-02T03:41:47.388Z,68.35
2018-01-02T03:44:19.885Z,68.40
2018-01-02T03:46:52.384Z,68.77
2018-01-02T03:49:24.933Z,68.49
2018-01-02T03:51:57.456Z,68.33
2018-01-02T03:54:29.960Z,68.33
2018-01-02T03:57:02.469Z,68.50
2018-01-02T03:59:35.655Z,68.51
2018-01-02T04:02:08.177Z,68.53
2018-01-02T04:04:40.707Z,68.44
2018-01-02T04:07:13.223Z,68.47
2018-01-02T04:09:45.713Z,68.65
2018-01-02T04:12:18.224Z,68.63
2018-01-02T04:14:50.715Z,68.52
2018-01-02T04:17:23.231Z,68.43
2018-01-02T04:19:55.727Z,68.65
2018-01-02T04:22:28.233Z,68.70
2018-01-02T04:25:00.745Z,68.42
2018-01-02T04:27:34.956Z,68.59
2018-01-02T04:30:07.461Z,68.51
2018-01-02T04:32:39.992Z,68.54
2018-01-02T04:35:13.294Z,68.44
2018-01-02T04:37:45.806Z,68.45
2018-01-02T04:40:18.315Z,68.53
2018-01-02T04:42:51.152Z,69.28
2018-01-02T04:45:23.677Z,68.83
2018-01-02T04:47:56.175Z,68.52
2018-01-02T04:50:28.792Z,68.26
2018-01-02T04:53:01.300Z,68.39
2018-01-02T04:55:34.506Z,68.36
2018-01-02T04:58:06.998Z,68.44
2018-01-02T05:00:40.400Z,68.61
2018-01-02T05:03:12.906Z,68.76
2018-01-02T05:05:45.424Z,68.76
2018-01-02T05:08:17.916Z,68.66
2018-01-02T05:10:50.453Z,68.55
2018-01-02T05:13:22.936Z,68.49
2018-01-02T05:15:55.448Z,68.77
2018-01-02T05:18:27.943Z,68.62
2018-01-02T05:21:00.454Z,68.20
2018-01-02T05:23:32.982Z,68.41
2018-01-02T05:26:06.335Z,68.53
2018-01-02T05:28:38.832Z,68.45
2018-01-02T05:31:11.362Z,68.24
2018-01-02T05:33:43.844Z,68.45
2018-01-02T05:36:16.356Z,68.33
2018-01-02T05:38:48.869Z,68.46
2018-01-02T05:41:21.399Z,68.31
2018-01-02T05:43:53.970Z,68.16
2018-01-02T05:46:26.497Z,68.15
2018-01-02T05:48:59.011Z,68.15
2018-01-02T05:51:31.546Z,68.04
2018-01-02T05:54:04.610Z,68.00
2018-01-02T05:56:37.123Z,68.17
2018-01-02T05:59:09.620Z,68.22
2018-01-02T06:01:42.137Z,68.21
2018-01-02T06:04:14.623Z,68.21
2018-01-02T06:06:47.137Z,68.33
2018-01-02T06:09:19.635Z,68.44
2018-01-02T06:11:52.134Z,68.23
2018-01-02T06:14:24.708Z,68.26
2018-01-02T06:16:57.470Z,68.21
2018-01-02T06:19:29.988Z,68.42
2018-01-02T06:22:02.524Z,68.27
2018-01-02T06:24:35.736Z,68.21
2018-01-02T06:27:08.256Z,68.49
2018-01-02T06:29:40.764Z,68.63
2018-01-02T06:32:13.298Z,68.37
2018-01-02T06:34:45.799Z,68.88
2018-01-02T06:37:18.333Z,68.48
2018-01-02T06:39:50.847Z,69.33
2018-01-02T06:42:23.364Z,69.17
2018-01-02T06:44:55.855Z,69.30
2018-01-02T06:47:28.384Z,68.94
2018-01-02T06:50:00.879Z,68.64
2018-01-02T06:52:34.013Z,68.79
2018-01-02T06:55:06.521Z,69.45
2018-01-02T06:57:39.023Z,69.14
2018-01-02T07:03:26.420Z,68.87
2018-01-02T07:05:58.916Z,69.12
2018-01-02T07:08:31.433Z,68.94
2018-01-02T07:11:04.610Z,69.27
2018-01-02T07:13:37.120Z,69.33
2018-01-02T07:16:09.608Z,69.44
2018-01-02T07:18:42.138Z,69.26
2018-01-02T07:21:14.634Z,69.19
2018-01-02T07:23:47.148Z,69.27
2018-01-02T07:26:19.680Z,69.45
2018-01-02T07:28:52.215Z,69.12
2018-01-02T07:31:24.705Z,69.56
2018-01-02T07:33:57.236Z,69.25
2018-01-02T07:36:29.723Z,69.00
2018-01-02T07:39:02.226Z,69.24
2018-01-02T07:41:34.765Z,69.16
2018-01-02T07:44:07.277Z,68.92
2018-01-02T07:46:40.772Z,68.93
2018-01-02T07:49:14.207Z,69.01
2018-01-02T07:51:46.747Z,69.03
2018-01-02T07:54:19.250Z,69.06
2018-01-02T07:56:51.780Z,69.32
2018-01-02T07:59:24.279Z,69.34
2018-01-02T08:01:56.790Z,69.15
2018-01-02T08:04:29.304Z,69.14
2018-01-02T08:07:01.887Z,69.37
2018-01-02T08:09:34.763Z,69.15
2018-01-02T08:12:07.284Z,69.46
2018-01-02T08:14:39.779Z,69.61
2018-01-02T08:17:12.306Z,69.97
2018-01-02T08:19:44.798Z,69.94
2018-01-02T08:22:17.329Z,69.55
2018-01-02T08:24:49.847Z,69.24
2018-01-02T08:27:22.361Z,69.06
2018-01-02T08:29:54.850Z,69.11
2018-01-02T08:32:27.408Z,69.19
2018-01-02T08:34:59.901Z,69.33
2018-01-02T08:37:32.422Z,69.29
2018-01-02T08:40:04.978Z,69.00
2018-01-02T08:42:37.492Z,68.92
2018-01-02T08:45:10.039Z,69.13
2018-01-02T08:47:42.550Z,69.10
2018-01-02T08:50:15.173Z,68.85
2018-01-02T08:52:47.722Z,68.63
2018-01-02T08:55:21.475Z,68.87
2018-01-02T08:57:54.935Z,68.84
2018-01-02T09:00:27.436Z,68.91
2018-01-02T09:03:00.599Z,68.88
2018-01-02T09:05:36.031Z,68.74
2018-01-02T09:08:08.859Z,69.10
2018-01-02T09:10:41.566Z,68.78
2018-01-02T09:13:17.476Z,69.46
2018-01-02T09:15:50.380Z,69.13
2018-01-02T09:18:23.208Z,69.96
2018-01-02T09:20:57.449Z,69.78
2018-01-02T09:23:31.576Z,69.46
2018-01-02T09:26:04.770Z,69.28
2018-01-02T09:28:38.008Z,69.32
2018-01-02T09:31:10.732Z,69.39
2018-01-02T09:33:44.537Z,69.87
2018-01-02T09:36:17.546Z,69.86
2018-01-02T09:38:50.559Z,69.83
2018-01-02T09:41:23.598Z,69.57
2018-01-02T09:43:57.535Z,69.75
2018-01-02T09:46:30.428Z,69.74
2018-01-02T09:49:03.290Z,70.16
2018-01-02T09:51:40.300Z,69.95
2018-01-02T09:54:13.547Z,70.68
2018-01-02T09:56:46.445Z,70.19
2018-01-02T09:59:20.447Z,70.23
2018-01-02T10:01:54.298Z,69.88
2018-01-02T10:04:27.243Z,69.68
2018-01-02T10:07:00.057Z,70.34
2018-01-02T10:09:36.173Z,69.43
2018-01-02T10:12:09.778Z,70.00
2018-01-02T10:14:43.528Z,69.85
2018-01-02T10:17:16.012Z,69.53
2018-01-02T10:19:50.051Z,69.25
2018-01-02T10:22:23.771Z,69.39
2018-01-02T10:24:56.501Z,69.87
2018-01-02T10:27:28.993Z,70.43
2018-01-02T10:30:04.293Z,69.83
2018-01-02T10:32:38.316Z,69.40
2018-01-02T10:35:11.170Z,69.51
2018-01-02T10:37:43.879Z,69.33
2018-01-02T10:40:20.126Z,69.43
2018-01-02T10:42:53.880Z,69.42
2018-01-02T10:45:26.616Z,69.53
2018-01-02T10:48:00.532Z,69.46
2018-01-02T10:50:35.134Z,70.02
2018-01-02T10:53:08.302Z,69.58
2018-01-02T10:55:41.311Z,69.49
2018-01-02T10:58:14.139Z,69.37
2018-01-02T11:00:53.521Z,69.30
2018-01-02T11:03:26.043Z,69.34
2018-01-02T11:05:59.975Z,69.49
2018-01-02T11:08:32.717Z,69.25
2018-01-02T12:34:25.143Z,68.93
2018-01-02T12:36:58.836Z,69.10
2018-01-02T12:39:31.465Z,69.89
2018-01-02T12:42:08.177Z,69.44
2018-01-02T12:44:41.290Z,69.32
2018-01-02T12:47:15.127Z,69.51
2018-01-02T12:49:48.550Z,69.12
2018-01-02T12:52:22.675Z,69.27
2018-01-02T12:54:55.815Z,69.08
2018-01-02T12:57:28.538Z,69.23
2018-01-02T13:00:01.176Z,67.99
2018-01-02T13:02:37.112Z,68.66
2018-01-02T13:05:09.965Z,68.72
2018-01-02T13:07:43.382Z,68.39
2018-01-02T13:10:16.582Z,68.44
2018-01-02T13:12:50.865Z,69.11
2018-01-02T13:15:23.806Z,67.28
2018-01-02T13:17:57.327Z,67.09
2018-01-02T13:20:31.443Z,68.26
2018-01-02T13:23:07.111Z,68.64
2018-01-02T13:25:40.446Z,67.79
2018-01-02T13:28:13.494Z,68.67
2018-01-02T13:30:46.735Z,68.98
2018-01-02T13:33:19.645Z,68.28
2018-01-02T13:35:52.176Z,69.18
2018-01-02T13:38:24.984Z,69.10
2018-01-02T13:40:57.667Z,68.36
2018-01-02T13:43:31.512Z,68.55
2018-01-02T13:46:06.273Z,68.96
2018-01-02T13:48:39.138Z,69.15
2018-01-02T13:51:11.983Z,69.29
2018-01-02T13:53:45.687Z,68.77
2018-01-02T13:56:19.499Z,68.74
2018-01-02T13:58:52.498Z,69.10
2018-01-02T14:01:26.025Z,69.33
2018-01-02T14:03:59.959Z,68.92
2018-01-02T14:06:32.990Z,68.78
2018-01-02T14:09:06.403Z,68.77
2018-01-02T14:11:40.555Z,68.63
2018-01-02T14:14:13.689Z,68.53
2018-01-02T14:16:47.088Z,68.46
2018-01-02T14:19:20.704Z,68.07
2018-01-02T14:21:54.939Z,68.12
2018-01-02T14:24:27.593Z,68.08
2018-01-02T14:27:00.388Z,68.00
2018-01-02T14:29:35.987Z,68.13
2018-01-02T14:32:10.146Z,67.80
2018-01-02T14:34:43.261Z,68.09
2018-01-02T14:37:16.196Z,67.95
2018-01-02T14:39:49.038Z,67.91
2018-01-02T14:42:22.764Z,68.00
2018-01-02T14:44:55.799Z,68.21
2018-01-02T14:47:28.504Z,68.45
2018-01-02T14:50:01.602Z,68.34
2018-01-02T14:52:36.617Z,68.41
2018-01-02T14:55:10.137Z,68.65
2018-01-02T14:57:42.864Z,68.55
2018-01-02T15:00:15.757Z,68.61
2018-01-02T15:02:49.472Z,68.38
2018-01-02T15:05:22.413Z,68.10
2018-01-02T15:07:55.163Z,68.16
2018-01-02T15:10:28.035Z,68.22
2018-01-02T15:13:02.042Z,68.06
2018-01-02T15:15:36.521Z,68.28
2018-01-02T15:18:09.223Z,68.23
2018-01-02T15:20:41.764Z,68.50
2018-01-02T15:23:14.340Z,68.25
2018-01-02T15:25:47.898Z,68.02
2018-01-02T15:28:21.430Z,68.18
2018-01-02T15:30:54.055Z,67.98
2018-01-02T15:33:26.860Z,68.10
2018-01-02T15:35:59.879Z,68.44
2018-01-02T15:38:32.912Z,68.49
2018-01-02T15:41:08.783Z,68.47
2018-01-02T15:43:41.852Z,68.71
2018-01-02T15:46:15.179Z,68.65
2018-01-02T15:48:47.698Z,69.39
2018-01-02T15:51:20.210Z,69.10
2018-01-02T15:53:53.538Z,69.39
2018-01-02T15:56:26.692Z,69.32
2018-01-02T15:58:59.587Z,69.02
2018-01-02T16:01:33.995Z,68.92
2018-01-02T16:04:06.503Z,68.41
2018-01-02T16:06:39.471Z,68.85
2018-01-02T16:09:13.291Z,68.77
2018-01-02T16:11:47.312Z,68.92
2018-01-02T16:14:20.018Z,68.52
2018-01-02T16:16:52.839Z,68.46
2018-01-02T16:19:26.743Z,68.58
2018-01-02T16:22:00.640Z,69.02
2018-01-02T16:24:35.264Z,69.17
2018-01-02T16:27:08.170Z,68.76
2018-01-02T16:29:41.832Z,68.53
2018-01-02T16:32:15.259Z,68.59
2018-01-02T16:34:47.769Z,68.29
2018-01-02T16:37:20.980Z,68.19
2018-01-02T16:39:54.307Z,68.64
2018-01-02T16:42:28.464Z,68.76
2018-01-02T16:45:01.167Z,68.68
2018-01-02T16:47:36.205Z,68.85
2018-01-02T16:50:09.002Z,68.75
2018-01-02T16:52:43.139Z,68.56
2018-01-02T16:55:17.075Z,68.69
2018-01-02T16:57:49.924Z,68.51
2018-01-02T17:00:22.911Z,68.75
2018-01-02T17:02:56.919Z,68.90
2018-01-02T17:05:29.750Z,68.62
2018-01-02T17:08:02.667Z,68.98
2018-01-02T17:10:38.042Z,69.12
2018-01-02T17:13:11.465Z,69.34
2018-01-02T17:15:44.482Z,69.44
2018-01-02T17:18:30.792Z,69.31
2018-01-02T17:21:27.916Z,69.32
2018-01-02T17:24:00.996Z,69.65
2018-01-02T17:26:35.416Z,69.30
2018-01-02T17:29:08.396Z,69.49
2018-01-02T19:00:35.267Z,68.92
2018-01-02T19:03:09.763Z,69.61
2018-01-02T19:05:44.525Z,69.51
2018-01-02T19:08:21.466Z,70.06
2018-01-02T19:10:54.643Z,70.21
2018-01-02T19:13:27.161Z,70.16
2018-01-02T19:15:59.921Z,69.89
2018-01-02T19:18:37.021Z,69.39
2018-01-02T19:21:11.335Z,69.73
2018-01-02T19:23:45.591Z,69.41
2018-01-02T19:26:18.364Z,69.61
2018-01-02T19:28:50.868Z,69.48
2018-01-02T19:31:23.389Z,69.58
2018-01-02T19:33:55.892Z,69.42
2018-01-02T19:36:29.050Z,69.17
2018-01-02T19:39:05.771Z,69.19
2018-01-02T19:41:39.632Z,69.76
2018-01-02T19:44:13.727Z,69.80
2018-01-02T19:46:47.051Z,69.75
2018-01-02T19:49:19.747Z,69.45
2018-01-02T19:51:52.264Z,69.31
2018-01-02T19:54:24.795Z,69.81
2018-01-02T19:56:57.292Z,69.78
2018-01-02T19:59:29.998Z,69.64
2018-01-02T20:02:05.580Z,69.40
2018-01-02T20:04:39.981Z,69.03
2018-01-02T20:07:13.967Z,69.21
2018-01-02T20:09:47.506Z,69.10
2018-01-02T20:12:20.112Z,69.20
2018-01-02T20:14:52.636Z,68.99
2018-01-02T20:17:25.134Z,68.81
2018-01-02T20:19:57.644Z,68.91
2018-01-02T20:22:32.683Z,69.07
2018-01-02T20:25:09.452Z,69.36
2018-01-02T20:27:43.012Z,69.51
2018-01-02T20:30:16.539Z,69.18
2018-01-02T20:32:49.251Z,69.11
2018-01-02T20:35:21.915Z,69.34
2018-01-02T20:37:54.418Z,69.35
2018-01-02T20:40:26.926Z,69.08
2018-01-02T20:43:02.366Z,69.25
2018-01-02T20:45:35.667Z,69.17
2018-01-02T20:48:08.954Z,69.06
2018-01-02T20:50:41.927Z,69.62
2018-01-02T20:53:15.208Z,69.43
2018-01-02T20:55:49.914Z,69.34
2018-01-02T20:58:22.523Z,69.99
2018-01-02T21:00:55.016Z,69.42
2018-01-02T21:03:27.523Z,69.08
2018-01-02T21:06:04.857Z,68.73
2018-01-02T21:08:38.311Z,68.57
2018-01-02T21:11:13.049Z,69.00
2018-01-02T21:13:46.967Z,68.97
2018-01-02T21:16:20.029Z,68.81
2018-01-02T21:18:53.736Z,68.96
2018-01-02T21:21:26.701Z,69.26
2018-01-02T21:24:01.328Z,69.36
2018-01-02T21:26:36.773Z,69.11
2018-01-02T21:29:14.400Z,68.91
2018-01-02T21:31:47.345Z,69.68
2018-01-02T21:34:20.352Z,68.30
2018-01-02T21:36:52.987Z,68.74
2018-01-02T21:39:25.765Z,67.49
2018-01-02T21:41:59.277Z,68.72
2018-01-02T21:44:35.002Z,67.87
2018-01-02T21:47:08.492Z,68.47
2018-01-02T21:49:43.656Z,68.83
2018-01-02T21:52:17.858Z,67.88
2018-01-02T21:54:50.412Z,69.41
2018-01-02T21:57:23.431Z,68.71
2018-01-02T21:59:56.378Z,68.45
2018-01-02T22:02:31.816Z,68.46
2018-01-02T22:05:07.831Z,69.73
2018-01-02T22:07:41.226Z,69.66
2018-01-02T22:10:14.607Z,67.86
2018-01-02T22:12:48.050Z,67.64
2018-01-02T22:15:20.654Z,69.10
2018-01-02T22:17:53.180Z,68.34
2018-01-02T22:20:25.676Z,68.75
2018-01-02T22:22:58.187Z,68.43
2018-01-02T22:25:35.953Z,68.59
2018-01-02T22:28:16.896Z,68.37
2018-01-02T22:30:50.805Z,67.34
2018-01-02T22:33:23.338Z,68.20
2018-01-02T22:35:55.924Z,67.89
2018-01-02T22:38:28.907Z,68.09
2018-01-02T22:41:02.343Z,67.20
2018-01-02T22:43:37.382Z,67.37
2018-01-02T22:46:12.882Z,67.46
2018-01-02T22:48:46.652Z,67.88
2018-01-02T22:51:20.153Z,66.83
2018-01-02T22:53:54.332Z,67.85
2018-01-02T22:56:26.863Z,67.78
2018-01-02T22:59:01.169Z,68.12
2018-01-02T23:01:49.658Z,68.21
2018-01-02T23:04:22.795Z,66.76
2018-01-02T23:06:55.436Z,66.64
2018-01-02T23:09:27.964Z,67.16
2018-01-02T23:12:07.657Z,67.13
2018-01-02T23:14:43.126Z,66.98
2018-01-02T23:17:16.623Z,67.05
2018-01-02T23:19:51.399Z,67.40
2018-01-02T23:22:23.887Z,66.86
2018-01-02T23:24:56.385Z,67.10
2018-01-02T23:27:31.201Z,68.23
2018-01-02T23:30:08.950Z,68.38
2018-01-02T23:32:43.121Z,67.88
2018-01-02T23:35:16.498Z,67.99
2018-01-02T23:37:49.639Z,68.57
2018-01-02T23:40:22.136Z,67.88
2018-01-02T23:42:54.624Z,67.74
2018-01-02T23:45:32.182Z,68.70
2018-01-02T23:48:07.073Z,69.22
2018-01-02T23:50:42.715Z,67.39
2018-01-02T23:53:18.894Z,67.58
2018-01-02T23:55:58.357Z,68.08
2018-01-02T23:58:40.362Z,68.56
